Terminal Aerodrome Forecast
Issued by NWS Twin Cities, MN

Home | Current Version | Previous Version | Graphics & Text | Print | Product List | Glossary On
Versions: 1 2 3 4 5 6 7 8 9 10 11 12 13 14 15 16 17 18 19 20 21
000
FTUS43 KMPX 232150 AAA
TAFSTC
TAF AMD
KSTC 232150Z 2322/2418 25009KT P6SM SKC
     FM240000 30008KT P6SM SCT025
      TEMPO 2402/2406 BKN025
     FM240600 30008KT 4SM BR FEW015
     FM241200 29005KT 4SM BR OVC015=

USA.gov is the U.S. government's official web portal to all federal, state and local government web resources and services.